Durango, Colorado
Current Conditions -  °F | °C
As of 12:53 AM on Thursday 27 Nov 2014 (Local Time) from KDRO Reporting Station
Clear Clear  
Wind Chill: 26°   Ceiling: Unl
Heat Index: 26°   Visibility: 10mi
Dew Point: 19°   Wind: 0mph
Humidity: 75%   Direction: NA
Pressure: 30.46"   Gusts: NA
Location:  37.27°N, 107.87°W
Report Text: KDRO 270753Z AUTO 00000KT 10SM CLR M03/M07 A3046 RMK AO2 SLP324 T10331072
Loading
Personal Weather Stations






























Interactive Weather Map New forecast layout! Learn more

10-Day Weather Forecast

Advertisements
Track Severe Weather on mobile